createdAt,value
2019-04-25T00:00:40.086Z,1002.24
2019-04-25T00:01:39.949Z,1002.27
2019-04-25T00:02:39.309Z,1002.35
2019-04-25T00:03:39.299Z,1002.34
2019-04-25T00:04:39.297Z,1002.30
2019-04-25T00:05:39.278Z,1002.32
2019-04-25T00:06:48.119Z,1002.36
2019-04-25T00:07:39.258Z,1002.28
2019-04-25T00:08:39.245Z,1002.44
2019-04-25T00:09:39.235Z,1002.45
2019-04-25T00:10:39.264Z,1002.50
2019-04-25T00:11:39.318Z,1002.49
2019-04-25T00:12:39.435Z,1002.43
2019-04-25T00:13:39.698Z,1002.49
2019-04-25T00:14:39.625Z,1002.62
2019-04-25T00:15:39.953Z,1002.64
2019-04-25T00:16:39.485Z,1002.66
2019-04-25T00:17:40.111Z,1002.69
2019-04-25T00:18:40.099Z,1002.69
2019-04-25T00:19:39.126Z,1002.68
2019-04-25T00:20:39.116Z,1002.61
2019-04-25T00:21:39.245Z,1002.63
2019-04-25T00:22:39.319Z,1002.67
2019-04-25T00:23:39.458Z,1002.72
2019-04-25T00:24:39.751Z,1002.72
2019-04-25T00:25:41.519Z,1002.72
2019-04-25T00:26:40.201Z,1002.62
2019-04-25T00:27:39.039Z,1002.54
2019-04-25T00:28:39.028Z,1002.53
2019-04-25T00:29:39.020Z,1002.56
2019-04-25T00:30:40.307Z,1002.51
2019-04-25T00:31:38.998Z,1002.42
2019-04-25T00:32:39.006Z,1002.41
2019-04-25T00:33:38.975Z,1002.41
2019-04-25T00:34:38.964Z,1002.42
2019-04-25T00:35:38.953Z,1002.51
2019-04-25T00:36:39.084Z,1002.58
2019-04-25T00:37:38.941Z,1002.66
2019-04-25T00:38:38.921Z,1002.63
2019-04-25T00:39:38.915Z,1002.66
2019-04-25T00:40:38.900Z,1002.68
2019-04-25T00:41:38.889Z,1002.61
2019-04-25T00:42:38.891Z,1002.49
2019-04-25T00:43:38.871Z,1002.48
2019-04-25T00:44:38.857Z,1002.43
2019-04-25T00:45:38.845Z,1002.41
2019-04-25T00:46:38.836Z,1002.50
2019-04-25T00:47:38.837Z,1002.60
2019-04-25T00:48:38.836Z,1002.63
2019-04-25T00:49:38.804Z,1002.63
2019-04-25T00:50:38.793Z,1002.68
2019-04-25T00:51:38.782Z,1002.71
2019-04-25T00:52:38.780Z,1002.71
2019-04-25T00:53:38.760Z,1002.53
2019-04-25T00:54:38.750Z,1002.61
2019-04-25T00:55:38.748Z,1002.68
2019-04-25T00:56:38.728Z,1002.64
2019-04-25T00:57:38.725Z,1002.65
2019-04-25T00:58:38.706Z,1002.67
2019-04-25T00:59:38.694Z,1002.75
2019-04-25T01:00:38.686Z,1002.75
2019-04-25T01:01:38.673Z,1002.65
2019-04-25T01:02:38.675Z,1002.70
2019-04-25T01:03:38.652Z,1002.61
2019-04-25T01:04:38.641Z,1002.63
2019-04-25T01:05:38.630Z,1002.56
2019-04-25T01:06:38.620Z,1002.69
2019-04-25T01:07:38.619Z,1002.75
2019-04-25T01:08:38.599Z,1002.77
2019-04-25T01:09:38.588Z,1002.81
2019-04-25T01:10:38.576Z,1002.82
2019-04-25T01:11:38.565Z,1002.78
2019-04-25T01:12:38.557Z,1002.74
2019-04-25T01:13:38.557Z,1002.79
2019-04-25T01:14:38.534Z,1002.78
2019-04-25T01:15:38.525Z,1002.81
2019-04-25T01:16:38.513Z,1002.80
2019-04-25T01:17:38.503Z,1002.78
2019-04-25T01:18:38.499Z,1002.79
2019-04-25T01:19:38.488Z,1002.85
2019-04-25T01:20:38.469Z,1002.84
2019-04-25T01:21:38.459Z,1002.91
2019-04-25T01:22:38.447Z,1002.95
2019-04-25T01:23:38.448Z,1002.99
2019-04-25T01:24:38.428Z,1002.98
2019-04-25T01:25:42.331Z,1003.00
2019-04-25T01:26:38.408Z,1003.02
2019-04-25T01:27:38.394Z,1003.09
2019-04-25T01:28:38.396Z,1003.02
2019-04-25T01:29:38.374Z,1002.98
2019-04-25T01:30:38.360Z,1003.00
2019-04-25T01:31:38.351Z,1002.96
2019-04-25T01:32:38.347Z,1002.97
2019-04-25T01:33:38.340Z,1003.02
2019-04-25T01:34:38.316Z,1003.05
2019-04-25T01:35:38.311Z,1003.00
2019-04-25T01:36:38.302Z,1002.91
2019-04-25T01:37:38.284Z,1002.94
2019-04-25T01:38:38.284Z,1002.98
2019-04-25T01:39:38.266Z,1002.95
2019-04-25T01:40:38.255Z,1002.94
2019-04-25T01:41:38.243Z,1002.87
2019-04-25T01:42:38.234Z,1002.86
2019-04-25T01:43:38.231Z,1002.92
2019-04-25T01:44:38.208Z,1002.90
2019-04-25T01:45:38.200Z,1002.95
2019-04-25T01:46:38.187Z,1002.93
2019-04-25T01:47:38.179Z,1002.85
2019-04-25T01:48:38.180Z,1002.89
2019-04-25T01:49:38.154Z,1002.98
2019-04-25T01:50:38.147Z,1002.99
2019-04-25T01:51:38.136Z,1002.97
2019-04-25T01:52:38.123Z,1003.09
2019-04-25T01:53:38.123Z,1003.00
2019-04-25T01:54:38.102Z,1003.01
2019-04-25T01:55:38.090Z,1003.02
2019-04-25T01:56:38.079Z,1003.04
2019-04-25T01:57:38.078Z,1003.01
2019-04-25T01:58:38.093Z,1002.98
2019-04-25T01:59:38.050Z,1002.98
2019-04-25T02:00:38.037Z,1002.95
2019-04-25T02:01:38.026Z,1002.99
2019-04-25T02:02:38.015Z,1003.00
2019-04-25T02:03:38.005Z,1002.99
2019-04-25T02:04:38.003Z,1002.99
2019-04-25T02:05:37.985Z,1002.91
2019-04-25T02:06:37.973Z,1002.88
2019-04-25T02:07:37.959Z,1002.90
2019-04-25T02:08:37.951Z,1002.88
2019-04-25T02:09:37.954Z,1002.86
2019-04-25T02:10:37.930Z,1002.82
2019-04-25T02:11:37.921Z,1002.87
2019-04-25T02:12:37.909Z,1002.86
2019-04-25T02:13:37.896Z,1002.99
2019-04-25T02:14:37.896Z,1003.03
2019-04-25T02:15:37.874Z,1003.03
2019-04-25T02:16:37.864Z,1003.09
2019-04-25T02:17:37.861Z,1003.07
2019-04-25T02:18:37.843Z,1003.05
2019-04-25T02:19:37.843Z,1003.00
2019-04-25T02:20:37.827Z,1002.94
2019-04-25T02:21:37.812Z,1003.04
2019-04-25T02:22:37.798Z,1003.03
2019-04-25T02:23:37.796Z,1003.08
2019-04-25T02:24:37.792Z,1003.12
2019-04-25T02:25:37.767Z,1003.18
2019-04-25T02:26:37.756Z,1003.24
2019-04-25T02:27:37.746Z,1003.35
2019-04-25T02:28:37.735Z,1003.41
2019-04-25T02:29:37.735Z,1003.40
2019-04-25T02:30:37.715Z,1003.45
2019-04-25T02:31:37.704Z,1003.48
2019-04-25T02:32:37.690Z,1003.56
2019-04-25T02:33:37.681Z,1003.63
2019-04-25T02:34:37.681Z,1003.68
2019-04-25T02:35:37.664Z,1003.70
2019-04-25T02:36:37.652Z,1003.73
2019-04-25T02:37:37.639Z,1003.76
2019-04-25T02:38:37.626Z,1003.80
2019-04-25T02:39:37.698Z,1003.82
2019-04-25T02:40:37.610Z,1003.79
2019-04-25T02:41:37.597Z,1003.82
2019-04-25T02:42:37.586Z,1003.78
2019-04-25T02:43:37.582Z,1003.88
2019-04-25T02:44:37.574Z,1003.92
2019-04-25T02:45:37.576Z,1003.92
2019-04-25T02:46:37.546Z,1003.88
2019-04-25T02:47:37.532Z,1003.94
2019-04-25T02:48:37.520Z,1003.94
2019-04-25T02:49:39.579Z,1003.87
2019-04-25T02:50:37.504Z,1003.90
2019-04-25T02:51:37.513Z,1003.93
2019-04-25T02:52:37.484Z,1003.93
2019-04-25T02:53:37.733Z,1003.98
2019-04-25T02:54:37.457Z,1003.95
2019-04-25T02:55:37.840Z,1003.98
2019-04-25T02:56:38.819Z,1003.96
2019-04-25T02:57:37.422Z,1003.94
2019-04-25T02:58:37.415Z,1003.95
2019-04-25T02:59:37.460Z,1004.02
2019-04-25T03:00:51.653Z,1003.97
2019-04-25T03:01:38.392Z,1003.93
2019-04-25T03:02:37.368Z,1003.91
2019-04-25T03:03:37.358Z,1003.92
2019-04-25T03:04:37.359Z,1003.93
2019-04-25T03:05:37.373Z,1003.90
2019-04-25T03:06:37.358Z,1003.91
2019-04-25T03:07:37.343Z,1003.89
2019-04-25T03:08:37.304Z,1003.88
2019-04-25T03:09:37.293Z,1003.98
2019-04-25T03:10:37.294Z,1003.98
2019-04-25T03:11:37.271Z,1003.98
2019-04-25T03:12:37.259Z,1003.94
2019-04-25T03:13:37.249Z,1004.01
2019-04-25T03:14:37.238Z,1004.05
2019-04-25T03:15:37.248Z,1004.14
2019-04-25T03:16:37.220Z,1004.03
2019-04-25T03:17:37.211Z,1004.04
2019-04-25T03:18:37.195Z,1004.15
2019-04-25T03:19:37.186Z,1004.07
2019-04-25T03:20:37.187Z,1004.10
2019-04-25T03:21:37.170Z,1004.08
2019-04-25T03:22:37.153Z,1004.03
2019-04-25T03:23:37.167Z,1004.03
2019-04-25T03:24:37.133Z,1004.14
2019-04-25T03:25:37.144Z,1004.10
2019-04-25T03:26:40.258Z,1004.18
2019-04-25T03:27:37.099Z,1004.15
2019-04-25T03:28:37.087Z,1004.17
2019-04-25T03:29:37.076Z,1004.14
2019-04-25T03:30:37.066Z,1004.18
2019-04-25T03:31:37.068Z,1004.11
2019-04-25T03:32:37.048Z,1004.20
2019-04-25T03:33:38.487Z,1004.17
2019-04-25T03:34:37.026Z,1004.18
2019-04-25T03:35:37.011Z,1004.22
2019-04-25T03:36:37.009Z,1004.21
2019-04-25T03:37:36.991Z,1004.30
2019-04-25T03:38:36.979Z,1004.34
2019-04-25T03:39:36.967Z,1004.35
2019-04-25T03:40:36.958Z,1004.36
2019-04-25T03:41:36.956Z,1004.31
2019-04-25T03:42:36.935Z,1004.31
2019-04-25T03:43:36.924Z,1004.34
2019-04-25T03:44:36.913Z,1004.31
2019-04-25T03:45:36.910Z,1004.32
2019-04-25T03:46:36.901Z,1004.41
2019-04-25T03:47:36.883Z,1004.37
2019-04-25T03:48:37.147Z,1004.33
2019-04-25T03:49:36.859Z,1004.35
2019-04-25T03:50:36.847Z,1004.36
2019-04-25T03:51:36.851Z,1004.39
2019-04-25T03:52:36.828Z,1004.41
2019-04-25T03:53:36.816Z,1004.45
2019-04-25T03:54:36.803Z,1004.48
2019-04-25T03:55:36.794Z,1004.53
2019-04-25T03:56:36.797Z,1004.53
2019-04-25T03:57:36.772Z,1004.47
2019-04-25T03:58:36.763Z,1004.52
2019-04-25T03:59:36.755Z,1004.56
2019-04-25T04:00:36.748Z,1004.57
2019-04-25T04:01:36.741Z,1004.63
2019-04-25T04:02:36.725Z,1004.63
2019-04-25T04:03:36.708Z,1004.60
2019-04-25T04:04:36.700Z,1004.67
2019-04-25T04:05:36.695Z,1004.78
2019-04-25T04:06:36.687Z,1004.75
2019-04-25T04:07:36.666Z,1004.81
2019-04-25T04:08:36.656Z,1004.85
2019-04-25T04:09:36.642Z,1004.92
2019-04-25T04:10:36.633Z,1004.93
2019-04-25T04:11:36.632Z,1004.87
2019-04-25T04:12:36.649Z,1004.89
2019-04-25T04:13:36.601Z,1004.99
2019-04-25T04:14:36.590Z,1004.99
2019-04-25T04:15:36.584Z,1005.06
2019-04-25T04:16:36.577Z,1005.08
2019-04-25T04:17:36.571Z,1005.14
2019-04-25T04:18:36.545Z,1005.14
2019-04-25T04:19:36.538Z,1005.13
2019-04-25T04:20:36.530Z,1005.18
2019-04-25T04:21:36.524Z,1005.14
2019-04-25T04:22:36.503Z,1005.22
2019-04-25T04:23:36.492Z,1005.24
2019-04-25T04:24:36.483Z,1005.19
2019-04-25T04:25:36.471Z,1005.25
2019-04-25T04:26:36.469Z,1005.25
2019-04-25T04:27:36.455Z,1005.24
2019-04-25T04:28:36.445Z,1005.24
2019-04-25T04:29:36.446Z,1005.26
2019-04-25T04:30:36.419Z,1005.34
2019-04-25T04:31:36.423Z,1005.38
2019-04-25T04:32:36.410Z,1005.33
2019-04-25T04:33:36.390Z,1005.36
2019-04-25T04:34:36.373Z,1005.44
2019-04-25T04:35:36.363Z,1005.46
2019-04-25T04:36:36.371Z,1005.52
2019-04-25T04:37:36.343Z,1005.59
2019-04-25T04:38:36.342Z,1005.59
2019-04-25T04:39:36.321Z,1005.59
2019-04-25T04:40:36.322Z,1005.66
2019-04-25T04:41:36.304Z,1005.62
2019-04-25T04:42:36.295Z,1005.63
2019-04-25T04:43:36.278Z,1005.65
2019-04-25T04:44:36.267Z,1005.66
2019-04-25T04:45:36.256Z,1005.66
2019-04-25T04:46:36.259Z,1005.64
2019-04-25T04:47:36.246Z,1005.68
2019-04-25T04:48:36.222Z,1005.64
2019-04-25T04:49:36.216Z,1005.72
2019-04-25T04:50:36.203Z,1005.77
2019-04-25T04:51:36.191Z,1005.75
2019-04-25T04:52:36.193Z,1005.77
2019-04-25T04:53:36.171Z,1005.80
2019-04-25T04:54:36.158Z,1005.80
2019-04-25T04:55:36.156Z,1005.77
2019-04-25T04:56:36.139Z,1005.78
2019-04-25T04:57:36.413Z,1005.78
2019-04-25T04:58:36.116Z,1005.81
2019-04-25T04:59:36.106Z,1005.85
2019-04-25T05:00:36.094Z,1005.98
2019-04-25T05:01:36.086Z,1005.97
2019-04-25T05:02:36.090Z,1005.93
2019-04-25T05:03:36.077Z,1006.09
2019-04-25T05:04:36.051Z,1006.07
2019-04-25T05:05:36.040Z,1006.11
2019-04-25T05:06:36.040Z,1006.03
2019-04-25T05:07:36.030Z,1006.09
2019-04-25T05:08:36.010Z,1006.10
2019-04-25T05:09:35.999Z,1006.08
2019-04-25T05:10:35.986Z,1006.05
2019-04-25T05:11:35.988Z,1006.06
2019-04-25T05:12:35.992Z,1006.06
2019-04-25T05:13:35.958Z,1006.11
2019-04-25T05:14:35.943Z,1006.15
2019-04-25T05:15:35.934Z,1006.18
2019-04-25T05:16:35.929Z,1006.18
2019-04-25T05:17:35.927Z,1006.27
2019-04-25T05:18:39.496Z,1006.28
2019-04-25T05:19:35.892Z,1006.27
2019-04-25T05:20:35.880Z,1006.29
2019-04-25T05:21:35.868Z,1006.27
2019-04-25T05:22:35.891Z,1006.28
2019-04-25T05:23:35.851Z,1006.31
2019-04-25T05:24:35.838Z,1006.33
2019-04-25T05:25:35.829Z,1006.37
2019-04-25T05:26:35.818Z,1006.37
2019-04-25T05:27:46.368Z,1006.43
2019-04-25T05:28:36.817Z,1006.46
2019-04-25T05:29:35.783Z,1006.48
2019-04-25T05:30:35.788Z,1006.51
2019-04-25T05:31:35.762Z,1006.53
2019-04-25T05:32:35.803Z,1006.54
2019-04-25T05:33:35.747Z,1006.55
2019-04-25T05:34:35.729Z,1006.55
2019-04-25T05:35:35.722Z,1006.57
2019-04-25T05:36:35.723Z,1006.58
2019-04-25T05:37:35.701Z,1006.67
2019-04-25T05:38:35.706Z,1006.68
2019-04-25T05:39:35.674Z,1006.65
2019-04-25T05:40:35.665Z,1006.70
2019-04-25T05:41:35.977Z,1006.65
2019-04-25T05:42:35.644Z,1006.67
2019-04-25T05:43:35.640Z,1006.61
2019-04-25T05:44:35.622Z,1006.65
2019-04-25T05:45:35.612Z,1006.66
2019-04-25T05:46:35.601Z,1006.71
2019-04-25T05:47:35.591Z,1006.76
2019-04-25T05:48:35.587Z,1006.78
2019-04-25T05:49:35.568Z,1006.82
2019-04-25T05:50:35.557Z,1006.84
2019-04-25T05:51:35.544Z,1006.81
2019-04-25T05:52:35.535Z,1006.84
2019-04-25T05:53:35.540Z,1006.87
2019-04-25T05:54:35.514Z,1006.85
2019-04-25T05:55:35.502Z,1006.86
2019-04-25T05:56:35.491Z,1006.85
2019-04-25T05:57:45.542Z,1006.90
2019-04-25T05:58:36.478Z,1006.90
2019-04-25T05:59:35.461Z,1006.85
2019-04-25T06:00:35.450Z,1006.89
2019-04-25T06:01:35.936Z,1006.86
2019-04-25T06:02:35.427Z,1006.92
2019-04-25T06:03:35.426Z,1006.92
2019-04-25T06:04:35.404Z,1007.00
2019-04-25T06:05:35.395Z,1006.97
2019-04-25T06:06:36.839Z,1007.01
2019-04-25T06:07:35.373Z,1007.01
2019-04-25T06:08:35.372Z,1007.05
2019-04-25T06:09:35.822Z,1007.07
2019-04-25T06:10:35.342Z,1007.08
2019-04-25T06:11:35.333Z,1007.07
2019-04-25T06:12:35.320Z,1007.09
2019-04-25T06:13:35.363Z,1007.12
2019-04-25T06:14:35.296Z,1007.10
2019-04-25T06:15:35.285Z,1007.11
2019-04-25T06:16:35.278Z,1007.07
2019-04-25T06:17:35.265Z,1007.17
2019-04-25T06:18:35.267Z,1007.22
2019-04-25T06:19:35.287Z,1007.20
2019-04-25T06:20:35.233Z,1007.19
2019-04-25T06:21:35.221Z,1007.17
2019-04-25T06:22:35.212Z,1007.18
2019-04-25T06:23:35.220Z,1007.18
2019-04-25T06:24:35.210Z,1007.19
2019-04-25T06:25:39.621Z,1007.20
2019-04-25T06:26:39.759Z,1007.24
2019-04-25T06:27:35.346Z,1007.23
2019-04-25T06:28:35.148Z,1007.25
2019-04-25T06:29:35.146Z,1007.27
2019-04-25T06:30:35.364Z,1007.30
2019-04-25T06:31:35.120Z,1007.33
2019-04-25T06:32:35.532Z,1007.34
2019-04-25T06:33:35.125Z,1007.40
2019-04-25T06:34:36.453Z,1007.43
2019-04-25T06:35:35.925Z,1007.36
2019-04-25T06:36:35.400Z,1007.38
2019-04-25T06:37:35.226Z,1007.37
2019-04-25T06:38:35.041Z,1007.40
2019-04-25T06:39:35.052Z,1007.42
2019-04-25T06:40:35.024Z,1007.44
2019-04-25T06:41:35.355Z,1007.40
2019-04-25T06:42:34.997Z,1007.43
2019-04-25T06:43:34.986Z,1007.43
2019-04-25T06:44:34.974Z,1007.43
2019-04-25T06:45:34.976Z,1007.46
2019-04-25T06:46:34.954Z,1007.49
2019-04-25T06:47:34.945Z,1007.50
2019-04-25T06:48:35.231Z,1007.40
2019-04-25T06:49:37.305Z,1007.43
2019-04-25T06:50:35.388Z,1007.46
2019-04-25T06:51:34.900Z,1007.44
2019-04-25T06:52:35.456Z,1007.41
2019-04-25T06:53:34.878Z,1007.42
2019-04-25T06:54:35.273Z,1007.43
2019-04-25T06:55:34.913Z,1007.48
2019-04-25T06:56:34.848Z,1007.44
2019-04-25T06:57:34.835Z,1007.50
2019-04-25T06:58:34.829Z,1007.43
2019-04-25T06:59:37.823Z,1007.46
2019-04-25T07:00:40.953Z,1007.46
2019-04-25T07:01:35.791Z,1007.50
2019-04-25T07:02:35.159Z,1007.48
2019-04-25T07:03:35.775Z,1007.55
2019-04-25T07:04:34.903Z,1007.58
2019-04-25T07:05:40.274Z,1007.57
2019-04-25T07:06:35.752Z,1007.55
2019-04-25T07:07:35.209Z,1007.53
2019-04-25T07:08:35.329Z,1007.55
2019-04-25T07:09:35.971Z,1007.59
2019-04-25T07:10:35.013Z,1007.54
2019-04-25T07:11:35.811Z,1007.58
2019-04-25T07:12:35.978Z,1007.56
2019-04-25T07:13:38.590Z,1007.56
2019-04-25T07:14:36.949Z,1007.60
2019-04-25T07:15:35.282Z,1007.65
2019-04-25T07:16:34.706Z,1007.63
2019-04-25T07:17:35.028Z,1007.76
2019-04-25T07:18:37.080Z,1007.71
2019-04-25T07:19:35.566Z,1007.73
2019-04-25T07:20:35.499Z,1007.77
2019-04-25T07:21:35.580Z,1007.74
2019-04-25T07:22:35.398Z,1007.68
2019-04-25T07:23:34.709Z,1007.74
2019-04-25T07:24:35.332Z,1007.72
2019-04-25T07:25:35.800Z,1007.70
2019-04-25T07:26:39.476Z,1007.69
2019-04-25T07:27:35.665Z,1007.74
2019-04-25T07:28:36.047Z,1007.82
2019-04-25T07:29:34.886Z,1007.92
2019-04-25T07:30:49.298Z,1007.98
2019-04-25T07:31:35.725Z,1008.04
2019-04-25T07:32:34.889Z,1008.08
2019-04-25T07:33:35.042Z,1008.09
2019-04-25T07:34:35.107Z,1008.10
2019-04-25T07:35:34.701Z,1008.19
2019-04-25T07:36:35.107Z,1008.28
2019-04-25T07:37:37.197Z,1008.26
2019-04-25T07:38:35.026Z,1008.33
2019-04-25T07:39:35.324Z,1008.34
2019-04-25T07:40:35.020Z,1008.35
2019-04-25T07:41:36.808Z,1008.31
2019-04-25T07:42:35.427Z,1008.28
2019-04-25T07:43:35.395Z,1008.22
2019-04-25T07:44:47.821Z,1008.22
2019-04-25T07:45:36.242Z,1008.11
2019-04-25T07:46:38.197Z,1008.12
2019-04-25T07:47:36.380Z,1008.14
2019-04-25T07:48:37.142Z,1008.06
2019-04-25T07:49:34.835Z,1008.14
2019-04-25T07:50:35.349Z,1008.09
2019-04-25T07:51:34.650Z,1008.08
2019-04-25T07:52:34.858Z,1008.14
2019-04-25T07:53:35.864Z,1008.10
2019-04-25T07:54:35.395Z,1008.12
2019-04-25T07:55:36.341Z,1008.19
2019-04-25T07:56:35.245Z,1008.21
2019-04-25T07:57:34.903Z,1008.14
2019-04-25T07:58:45.415Z,1008.13
2019-04-25T07:59:36.312Z,1008.14
2019-04-25T08:00:35.258Z,1008.11
2019-04-25T08:01:37.283Z,1008.10
2019-04-25T08:02:35.029Z,1008.10
2019-04-25T08:03:35.253Z,1008.13
2019-04-25T08:04:35.756Z,1008.17
2019-04-25T08:05:35.343Z,1008.18
2019-04-25T08:06:34.585Z,1008.18
2019-04-25T08:07:35.245Z,1008.17
2019-04-25T08:08:34.992Z,1008.17
2019-04-25T08:09:35.414Z,1008.19
2019-04-25T08:10:34.686Z,1008.18
2019-04-25T08:11:35.037Z,1008.15
2019-04-25T08:12:34.651Z,1008.16
2019-04-25T08:13:35.082Z,1008.19
2019-04-25T08:14:35.068Z,1008.18
2019-04-25T08:15:35.002Z,1008.14
2019-04-25T08:16:34.778Z,1008.13
2019-04-25T08:17:35.825Z,1008.15
2019-04-25T08:18:35.115Z,1008.17
2019-04-25T08:19:34.674Z,1008.16
2019-04-25T08:20:34.709Z,1008.18
2019-04-25T08:21:34.477Z,1008.16
2019-04-25T08:22:42.936Z,1008.18
2019-04-25T08:23:37.717Z,1008.26
2019-04-25T08:24:34.888Z,1008.22
2019-04-25T08:25:38.889Z,1008.26
2019-04-25T08:26:36.221Z,1008.25
2019-04-25T08:27:34.774Z,1008.21
2019-04-25T08:28:34.547Z,1008.24
2019-04-25T08:29:39.016Z,1008.28
2019-04-25T08:30:35.305Z,1008.32
2019-04-25T08:31:34.959Z,1008.26
2019-04-25T08:32:35.518Z,1008.31
2019-04-25T08:33:34.564Z,1008.34
2019-04-25T08:34:35.732Z,1008.32
2019-04-25T08:35:34.262Z,1008.30
2019-04-25T08:36:38.084Z,1008.33
2019-04-25T08:37:34.458Z,1008.36
2019-04-25T08:38:34.850Z,1008.35
2019-04-25T08:39:36.943Z,1008.41
2019-04-25T08:40:35.729Z,1008.39
2019-04-25T08:41:34.811Z,1008.37
2019-04-25T08:42:35.423Z,1008.37
2019-04-25T08:43:36.322Z,1008.39
2019-04-25T08:44:34.823Z,1008.38
2019-04-25T08:45:35.717Z,1008.38
2019-04-25T08:46:35.836Z,1008.36
2019-04-25T08:47:35.771Z,1008.37
2019-04-25T08:48:34.612Z,1008.34
2019-04-25T08:49:34.898Z,1008.39
2019-04-25T08:50:37.171Z,1008.31
2019-04-25T08:51:35.208Z,1008.37
2019-04-25T08:52:35.494Z,1008.39
2019-04-25T08:53:35.165Z,1008.47
2019-04-25T08:54:35.440Z,1008.39
2019-04-25T08:55:34.917Z,1008.41
2019-04-25T08:56:35.108Z,1008.45
2019-04-25T08:57:34.165Z,1008.43
2019-04-25T08:58:35.128Z,1008.47
2019-04-25T08:59:40.117Z,1008.50
2019-04-25T09:00:35.759Z,1008.53
2019-04-25T09:01:36.493Z,1008.47
2019-04-25T09:02:36.062Z,1008.50
2019-04-25T09:03:35.275Z,1008.45
2019-04-25T09:04:35.711Z,1008.49
2019-04-25T09:05:36.089Z,1008.44
2019-04-25T09:06:36.053Z,1008.49
2019-04-25T09:07:35.381Z,1008.48
2019-04-25T09:08:36.015Z,1008.49
2019-04-25T09:09:35.331Z,1008.44
2019-04-25T09:10:35.781Z,1008.42
2019-04-25T09:11:36.142Z,1008.48
2019-04-25T09:12:35.518Z,1008.51
2019-04-25T09:13:35.807Z,1008.47
2019-04-25T09:14:35.581Z,1008.47
2019-04-25T09:15:35.641Z,1008.45
2019-04-25T09:16:34.746Z,1008.48
2019-04-25T09:17:35.883Z,1008.46
2019-04-25T09:18:35.737Z,1008.49
2019-04-25T09:19:35.873Z,1008.39
2019-04-25T09:20:38.067Z,1008.37
2019-04-25T09:21:36.445Z,1008.34
2019-04-25T09:22:36.101Z,1008.39
2019-04-25T09:23:35.273Z,1008.36
2019-04-25T09:24:36.269Z,1008.39
2019-04-25T09:25:34.599Z,1008.36
2019-04-25T09:26:34.911Z,1008.31
2019-04-25T09:27:34.376Z,1008.34
2019-04-25T09:28:35.065Z,1008.38
2019-04-25T09:29:34.388Z,1008.41
2019-04-25T09:30:34.956Z,1008.49
2019-04-25T09:31:34.329Z,1008.48
2019-04-25T09:32:33.797Z,1008.48
2019-04-25T09:33:35.141Z,1008.48
2019-04-25T09:34:33.575Z,1008.44
2019-04-25T09:35:33.578Z,1008.42
2019-04-25T09:36:33.648Z,1008.43
2019-04-25T09:37:33.575Z,1008.42
2019-04-25T09:38:34.799Z,1008.32
2019-04-25T09:39:33.835Z,1008.34
2019-04-25T09:40:34.177Z,1008.34
2019-04-25T09:41:33.640Z,1008.35
2019-04-25T09:42:33.819Z,1008.30
2019-04-25T09:43:33.484Z,1008.29
2019-04-25T09:44:33.072Z,1008.29
2019-04-25T09:45:33.545Z,1008.30
2019-04-25T09:46:34.209Z,1008.33
2019-04-25T09:47:33.537Z,1008.37
2019-04-25T09:48:35.384Z,1008.38
2019-04-25T09:49:34.994Z,1008.36
2019-04-25T09:50:33.954Z,1008.35
2019-04-25T09:51:33.565Z,1008.33
2019-04-25T09:52:34.021Z,1008.39
2019-04-25T09:53:34.261Z,1008.44
2019-04-25T09:54:33.418Z,1008.38
2019-04-25T09:55:34.029Z,1008.35
2019-04-25T09:56:33.958Z,1008.34
2019-04-25T09:57:33.447Z,1008.42
2019-04-25T09:58:33.846Z,1008.36
2019-04-25T09:59:33.159Z,1008.34
2019-04-25T10:00:33.417Z,1008.28
2019-04-25T10:01:33.852Z,1008.24
2019-04-25T10:02:32.874Z,1008.27
2019-04-25T10:03:33.363Z,1008.28
2019-04-25T10:04:34.508Z,1008.24
2019-04-25T10:05:33.913Z,1008.26
2019-04-25T10:06:33.293Z,1008.22
2019-04-25T10:07:32.822Z,1008.21
2019-04-25T10:08:34.222Z,1008.20
2019-04-25T10:09:33.746Z,1008.26
2019-04-25T10:10:32.802Z,1008.21
2019-04-25T10:11:33.502Z,1008.18
2019-04-25T10:12:34.127Z,1008.18
2019-04-25T10:13:33.717Z,1008.25
2019-04-25T10:14:32.751Z,1008.25
2019-04-25T10:15:33.913Z,1008.29
2019-04-25T10:16:33.510Z,1008.26
2019-04-25T10:17:33.778Z,1008.31
2019-04-25T10:18:33.442Z,1008.26
2019-04-25T10:19:34.319Z,1008.24
2019-04-25T10:20:33.382Z,1008.31
2019-04-25T10:21:34.186Z,1008.23
2019-04-25T10:22:33.932Z,1008.20
2019-04-25T10:23:34.230Z,1008.22
2019-04-25T10:24:32.641Z,1008.22
2019-04-25T10:25:33.417Z,1008.17
2019-04-25T10:26:33.501Z,1008.17
2019-04-25T10:27:32.613Z,1008.13
2019-04-25T10:28:33.608Z,1008.26
2019-04-25T10:29:41.755Z,1008.22
2019-04-25T10:30:34.300Z,1008.20
2019-04-25T10:31:33.907Z,1008.21
2019-04-25T10:32:33.564Z,1008.15
2019-04-25T10:33:32.548Z,1008.13
2019-04-25T10:34:33.360Z,1008.08
2019-04-25T10:35:40.854Z,1008.11
2019-04-25T10:36:33.734Z,1008.13
2019-04-25T10:37:33.662Z,1008.11
2019-04-25T10:38:33.571Z,1008.05
2019-04-25T10:39:33.999Z,1008.08
2019-04-25T10:40:33.829Z,1008.02
2019-04-25T10:41:35.397Z,1008.03
2019-04-25T10:42:34.177Z,1008.06
2019-04-25T10:43:34.091Z,1008.00
2019-04-25T10:44:33.831Z,1008.10
2019-04-25T10:45:33.997Z,1008.08
2019-04-25T10:46:33.960Z,1008.02
2019-04-25T10:47:33.405Z,1008.03
2019-04-25T10:48:34.290Z,1008.00
2019-04-25T10:49:34.353Z,1008.01
2019-04-25T10:50:34.005Z,1008.06
2019-04-25T10:51:34.140Z,1008.07
2019-04-25T10:52:33.779Z,1008.01
2019-04-25T10:53:33.824Z,1008.03
2019-04-25T10:54:34.947Z,1008.05
2019-04-25T10:55:32.321Z,1008.02
2019-04-25T10:56:33.470Z,1008.00
2019-04-25T10:57:33.880Z,1008.04
2019-04-25T10:58:33.525Z,1007.98
2019-04-25T10:59:32.278Z,1008.01
2019-04-25T11:00:33.800Z,1007.97
2019-04-25T11:01:33.774Z,1008.05
2019-04-25T11:02:33.950Z,1008.08
2019-04-25T11:03:33.727Z,1008.06
2019-04-25T11:04:32.229Z,1008.12
2019-04-25T11:05:32.218Z,1008.18
2019-04-25T11:06:33.684Z,1008.18
2019-04-25T11:07:33.818Z,1008.22
2019-04-25T11:08:33.873Z,1008.25
2019-04-25T11:09:34.261Z,1008.29
2019-04-25T11:10:32.166Z,1008.26
2019-04-25T11:11:32.165Z,1008.28
2019-04-25T11:12:33.799Z,1008.29
2019-04-25T11:13:33.906Z,1008.32
2019-04-25T11:14:32.132Z,1008.25
2019-04-25T11:15:33.889Z,1008.30
2019-04-25T11:16:33.308Z,1008.38
2019-04-25T11:17:33.737Z,1008.31
2019-04-25T11:18:33.890Z,1008.21
2019-04-25T11:19:33.861Z,1008.26
2019-04-25T11:20:33.709Z,1008.18
2019-04-25T11:21:33.314Z,1008.28
2019-04-25T11:22:32.046Z,1008.29
2019-04-25T11:23:32.046Z,1008.38
2019-04-25T11:24:32.027Z,1008.27
2019-04-25T11:25:32.018Z,1008.37
2019-04-25T11:26:34.490Z,1008.31
2019-04-25T11:27:31.999Z,1008.35
2019-04-25T11:28:33.610Z,1008.42
2019-04-25T11:29:31.980Z,1008.24
2019-04-25T11:30:31.968Z,1008.26
2019-04-25T11:31:33.545Z,1008.23
2019-04-25T11:32:33.797Z,1008.30
2019-04-25T11:33:33.416Z,1008.30
2019-04-25T11:34:31.931Z,1008.31
2019-04-25T11:35:31.921Z,1008.33
2019-04-25T11:36:31.934Z,1008.27
2019-04-25T11:37:31.914Z,1008.31
2019-04-25T11:38:31.895Z,1008.28
2019-04-25T11:39:31.884Z,1008.32
2019-04-25T11:40:31.880Z,1008.31
2019-04-25T11:41:31.864Z,1008.28
2019-04-25T11:42:31.868Z,1008.21
2019-04-25T11:43:31.854Z,1008.07
2019-04-25T11:44:33.286Z,1008.05
2019-04-25T11:45:31.829Z,1007.93
2019-04-25T11:46:33.305Z,1007.85
2019-04-25T11:47:33.408Z,1007.88
2019-04-25T11:48:31.800Z,1008.04
2019-04-25T11:49:31.789Z,1008.13
2019-04-25T11:50:31.781Z,1008.14
2019-04-25T11:51:31.769Z,1008.11
2019-04-25T11:52:33.505Z,1008.09
2019-04-25T11:53:31.750Z,1008.13
2019-04-25T11:54:31.742Z,1008.14
2019-04-25T11:55:31.732Z,1008.18
2019-04-25T11:56:31.722Z,1008.14
2019-04-25T11:57:31.720Z,1008.11
2019-04-25T11:58:31.734Z,1008.18
2019-04-25T11:59:31.692Z,1008.14
2019-04-25T12:00:31.688Z,1008.09
2019-04-25T12:01:33.520Z,1007.99
2019-04-25T12:02:31.672Z,1007.87
2019-04-25T12:03:31.656Z,1007.83
2019-04-25T12:04:33.179Z,1007.89
2019-04-25T12:05:31.635Z,1007.97